sensor_id;sensor_type;location;lat;lon;timestamp;P1;durP1;ratioP1;P2;durP2;ratioP2
76208;SDS011;64990;51.698;-0.292;2023-04-01T00:02:07;14.85;;;8.45;;
76208;SDS011;64990;51.698;-0.292;2023-04-01T00:04:33;25.23;;;7.90;;
76208;SDS011;64990;51.698;-0.292;2023-04-01T00:06:59;13.98;;;7.63;;
76208;SDS011;64990;51.698;-0.292;2023-04-01T00:09:26;15.75;;;8.20;;
76208;SDS011;64990;51.698;-0.292;2023-04-01T00:11:52;11.05;;;7.22;;
76208;SDS011;64990;51.698;-0.292;2023-04-01T00:14:18;9.32;;;5.88;;
76208;SDS011;64990;51.698;-0.292;2023-04-01T00:16:45;10.13;;;5.75;;
76208;SDS011;64990;51.698;-0.292;2023-04-01T00:19:11;7.45;;;4.75;;
76208;SDS011;64990;51.698;-0.292;2023-04-01T00:21:38;8.93;;;5.38;;
76208;SDS011;64990;51.698;-0.292;2023-04-01T00:24:04;14.98;;;5.60;;
76208;SDS011;64990;51.698;-0.292;2023-04-01T00:26:30;10.68;;;4.70;;
76208;SDS011;64990;51.698;-0.292;2023-04-01T00:28:56;8.48;;;4.18;;
76208;SDS011;64990;51.698;-0.292;2023-04-01T00:31:22;8.35;;;4.03;;
76208;SDS011;64990;51.698;-0.292;2023-04-01T00:33:48;7.45;;;4.13;;
76208;SDS011;64990;51.698;-0.292;2023-04-01T00:36:16;6.00;;;3.83;;
76208;SDS011;64990;51.698;-0.292;2023-04-01T00:38:43;5.07;;;3.15;;
76208;SDS011;64990;51.698;-0.292;2023-04-01T00:41:10;5.22;;;3.22;;
76208;SDS011;64990;51.698;-0.292;2023-04-01T00:43:41;6.07;;;4.03;;
76208;SDS011;64990;51.698;-0.292;2023-04-01T00:46:07;7.35;;;3.78;;
76208;SDS011;64990;51.698;-0.292;2023-04-01T00:48:33;8.23;;;3.40;;
76208;SDS011;64990;51.698;-0.292;2023-04-01T00:51:02;6.47;;;3.65;;
76208;SDS011;64990;51.698;-0.292;2023-04-01T00:53:30;7.07;;;3.78;;
76208;SDS011;64990;51.698;-0.292;2023-04-01T00:58:49;8.32;;;3.40;;
76208;SDS011;64990;51.698;-0.292;2023-04-01T01:01:16;5.60;;;3.30;;
76208;SDS011;64990;51.698;-0.292;2023-04-01T01:03:42;6.43;;;4.07;;
76208;SDS011;64990;51.698;-0.292;2023-04-01T01:06:10;7.50;;;3.60;;
76208;SDS011;64990;51.698;-0.292;2023-04-01T01:08:43;6.82;;;4.00;;
76208;SDS011;64990;51.698;-0.292;2023-04-01T01:11:13;7.57;;;3.45;;
76208;SDS011;64990;51.698;-0.292;2023-04-01T01:13:53;7.90;;;3.55;;
76208;SDS011;64990;51.698;-0.292;2023-04-01T01:16:33;7.32;;;4.03;;
76208;SDS011;64990;51.698;-0.292;2023-04-01T01:19:10;8.05;;;3.35;;
76208;SDS011;64990;51.698;-0.292;2023-04-01T01:26:59;6.30;;;3.35;;
76208;SDS011;64990;51.698;-0.292;2023-04-01T01:35:13;4.72;;;3.03;;
76208;SDS011;64990;51.698;-0.292;2023-04-01T01:37:41;6.68;;;3.95;;
76208;SDS011;64990;51.698;-0.292;2023-04-01T01:40:08;3.60;;;2.30;;
76208;SDS011;64990;51.698;-0.292;2023-04-01T01:42:37;7.43;;;3.70;;
76208;SDS011;64990;51.698;-0.292;2023-04-01T01:45:04;5.70;;;2.38;;
76208;SDS011;64990;51.698;-0.292;2023-04-01T01:47:31;9.38;;;3.22;;
76208;SDS011;64990;51.698;-0.292;2023-04-01T01:49:58;5.90;;;2.83;;
76208;SDS011;64990;51.698;-0.292;2023-04-01T01:52:27;2.95;;;2.63;;
76208;SDS011;64990;51.698;-0.292;2023-04-01T01:54:54;13.38;;;2.90;;
76208;SDS011;64990;51.698;-0.292;2023-04-01T01:57:28;3.08;;;2.78;;
76208;SDS011;64990;51.698;-0.292;2023-04-01T01:59:56;5.93;;;2.80;;
76208;SDS011;64990;51.698;-0.292;2023-04-01T02:02:24;3.65;;;2.45;;
76208;SDS011;64990;51.698;-0.292;2023-04-01T02:04:53;4.32;;;2.47;;
76208;SDS011;64990;51.698;-0.292;2023-04-01T02:07:20;3.75;;;2.38;;
76208;SDS011;64990;51.698;-0.292;2023-04-01T02:09:48;3.50;;;2.22;;
76208;SDS011;64990;51.698;-0.292;2023-04-01T02:12:15;8.45;;;3.03;;
76208;SDS011;64990;51.698;-0.292;2023-04-01T02:17:12;5.40;;;3.10;;
76208;SDS011;64990;51.698;-0.292;2023-04-01T02:19:41;7.53;;;2.78;;
76208;SDS011;64990;51.698;-0.292;2023-04-01T02:22:11;5.07;;;2.70;;
76208;SDS011;64990;51.698;-0.292;2023-04-01T02:24:43;5.57;;;2.92;;
76208;SDS011;64990;51.698;-0.292;2023-04-01T02:27:10;6.63;;;3.90;;
76208;SDS011;64990;51.698;-0.292;2023-04-01T02:29:38;6.15;;;3.17;;
76208;SDS011;64990;51.698;-0.292;2023-04-01T02:32:04;4.05;;;2.47;;
76208;SDS011;64990;51.698;-0.292;2023-04-01T02:34:34;4.97;;;2.40;;
76208;SDS011;64990;51.698;-0.292;2023-04-01T02:37:00;5.13;;;3.08;;
76208;SDS011;64990;51.698;-0.292;2023-04-01T02:39:27;6.70;;;3.50;;
76208;SDS011;64990;51.698;-0.292;2023-04-01T02:41:53;5.90;;;2.85;;
76208;SDS011;64990;51.698;-0.292;2023-04-01T02:44:19;8.10;;;2.80;;
76208;SDS011;64990;51.698;-0.292;2023-04-01T02:46:46;13.02;;;4.68;;
76208;SDS011;64990;51.698;-0.292;2023-04-01T02:49:12;3.13;;;2.20;;
76208;SDS011;64990;51.698;-0.292;2023-04-01T02:51:38;4.28;;;3.13;;
76208;SDS011;64990;51.698;-0.292;2023-04-01T02:54:04;5.80;;;3.33;;
76208;SDS011;64990;51.698;-0.292;2023-04-01T02:56:30;6.05;;;2.88;;
76208;SDS011;64990;51.698;-0.292;2023-04-01T02:58:57;6.53;;;2.67;;
76208;SDS011;64990;51.698;-0.292;2023-04-01T03:01:23;4.22;;;2.70;;
76208;SDS011;64990;51.698;-0.292;2023-04-01T03:03:49;7.03;;;3.05;;
76208;SDS011;64990;51.698;-0.292;2023-04-01T03:06:15;6.35;;;3.70;;
76208;SDS011;64990;51.698;-0.292;2023-04-01T03:08:41;4.82;;;3.65;;
76208;SDS011;64990;51.698;-0.292;2023-04-01T03:11:08;4.25;;;2.60;;
76208;SDS011;64990;51.698;-0.292;2023-04-01T03:13:35;4.57;;;3.00;;
76208;SDS011;64990;51.698;-0.292;2023-04-01T03:16:01;3.67;;;2.92;;
76208;SDS011;64990;51.698;-0.292;2023-04-01T03:18:27;9.65;;;2.63;;
76208;SDS011;64990;51.698;-0.292;2023-04-01T03:20:53;4.63;;;2.50;;
76208;SDS011;64990;51.698;-0.292;2023-04-01T03:23:19;3.72;;;2.08;;
76208;SDS011;64990;51.698;-0.292;2023-04-01T03:25:46;6.50;;;2.40;;
76208;SDS011;64990;51.698;-0.292;2023-04-01T03:28:13;6.35;;;3.08;;
76208;SDS011;64990;51.698;-0.292;2023-04-01T03:30:39;4.25;;;2.15;;
76208;SDS011;64990;51.698;-0.292;2023-04-01T03:33:06;8.23;;;3.47;;
76208;SDS011;64990;51.698;-0.292;2023-04-01T03:35:32;17.10;;;3.97;;
76208;SDS011;64990;51.698;-0.292;2023-04-01T03:38:01;5.45;;;2.67;;
76208;SDS011;64990;51.698;-0.292;2023-04-01T03:40:27;3.03;;;2.53;;
76208;SDS011;64990;51.698;-0.292;2023-04-01T03:42:53;6.90;;;3.35;;
76208;SDS011;64990;51.698;-0.292;2023-04-01T03:45:19;8.00;;;3.63;;
76208;SDS011;64990;51.698;-0.292;2023-04-01T03:47:46;4.00;;;2.72;;
76208;SDS011;64990;51.698;-0.292;2023-04-01T03:50:12;3.67;;;2.95;;
76208;SDS011;64990;51.698;-0.292;2023-04-01T03:52:38;6.70;;;3.35;;
76208;SDS011;64990;51.698;-0.292;2023-04-01T03:55:05;4.32;;;2.25;;
76208;SDS011;64990;51.698;-0.292;2023-04-01T03:57:31;6.03;;;1.95;;
76208;SDS011;64990;51.698;-0.292;2023-04-01T03:59:57;2.45;;;1.83;;
76208;SDS011;64990;51.698;-0.292;2023-04-01T04:02:23;2.42;;;1.77;;
76208;SDS011;64990;51.698;-0.292;2023-04-01T04:04:49;3.25;;;2.15;;
76208;SDS011;64990;51.698;-0.292;2023-04-01T04:07:15;4.43;;;2.30;;
76208;SDS011;64990;51.698;-0.292;2023-04-01T04:09:41;19.00;;;3.63;;
76208;SDS011;64990;51.698;-0.292;2023-04-01T04:12:10;5.13;;;2.70;;
76208;SDS011;64990;51.698;-0.292;2023-04-01T04:14:36;2.53;;;1.95;;
76208;SDS011;64990;51.698;-0.292;2023-04-01T04:17:02;2.53;;;2.33;;
76208;SDS011;64990;51.698;-0.292;2023-04-01T04:19:31;2.95;;;1.92;;
76208;SDS011;64990;51.698;-0.292;2023-04-01T04:21:58;5.43;;;2.53;;
76208;SDS011;64990;51.698;-0.292;2023-04-01T04:24:26;4.90;;;2.25;;
76208;SDS011;64990;51.698;-0.292;2023-04-01T04:26:52;4.80;;;3.13;;
76208;SDS011;64990;51.698;-0.292;2023-04-01T04:29:18;4.95;;;3.13;;
76208;SDS011;64990;51.698;-0.292;2023-04-01T04:31:44;5.30;;;2.90;;
76208;SDS011;64990;51.698;-0.292;2023-04-01T04:34:10;3.97;;;2.38;;
76208;SDS011;64990;51.698;-0.292;2023-04-01T04:36:36;4.25;;;2.78;;
76208;SDS011;64990;51.698;-0.292;2023-04-01T04:39:04;6.47;;;2.97;;
76208;SDS011;64990;51.698;-0.292;2023-04-01T04:41:30;5.88;;;3.90;;
76208;SDS011;64990;51.698;-0.292;2023-04-01T04:43:57;6.20;;;3.33;;
76208;SDS011;64990;51.698;-0.292;2023-04-01T04:46:23;5.40;;;2.58;;
76208;SDS011;64990;51.698;-0.292;2023-04-01T04:48:50;5.65;;;3.50;;
76208;SDS011;64990;51.698;-0.292;2023-04-01T04:51:17;5.15;;;2.65;;
76208;SDS011;64990;51.698;-0.292;2023-04-01T04:53:44;3.65;;;2.58;;
76208;SDS011;64990;51.698;-0.292;2023-04-01T04:56:10;7.20;;;4.15;;
76208;SDS011;64990;51.698;-0.292;2023-04-01T04:58:37;6.97;;;3.95;;
76208;SDS011;64990;51.698;-0.292;2023-04-01T05:01:09;4.75;;;2.97;;
76208;SDS011;64990;51.698;-0.292;2023-04-01T05:03:36;6.82;;;4.32;;
76208;SDS011;64990;51.698;-0.292;2023-04-01T05:06:02;4.40;;;2.72;;
76208;SDS011;64990;51.698;-0.292;2023-04-01T05:08:29;5.70;;;3.55;;
76208;SDS011;64990;51.698;-0.292;2023-04-01T05:10:55;7.50;;;4.57;;
76208;SDS011;64990;51.698;-0.292;2023-04-01T05:13:21;3.50;;;2.75;;
76208;SDS011;64990;51.698;-0.292;2023-04-01T05:15:48;5.57;;;3.53;;
76208;SDS011;64990;51.698;-0.292;2023-04-01T05:18:14;6.60;;;3.15;;
76208;SDS011;64990;51.698;-0.292;2023-04-01T05:20:45;7.38;;;3.67;;
76208;SDS011;64990;51.698;-0.292;2023-04-01T05:23:11;5.43;;;3.35;;
76208;SDS011;64990;51.698;-0.292;2023-04-01T05:25:37;5.50;;;3.53;;
76208;SDS011;64990;51.698;-0.292;2023-04-01T05:28:04;6.63;;;3.40;;
76208;SDS011;64990;51.698;-0.292;2023-04-01T05:30:30;7.63;;;4.72;;
76208;SDS011;64990;51.698;-0.292;2023-04-01T05:32:58;8.00;;;5.20;;
76208;SDS011;64990;51.698;-0.292;2023-04-01T05:35:25;10.55;;;6.35;;
76208;SDS011;64990;51.698;-0.292;2023-04-01T05:37:51;7.05;;;4.72;;
76208;SDS011;64990;51.698;-0.292;2023-04-01T05:40:19;12.75;;;6.15;;
76208;SDS011;64990;51.698;-0.292;2023-04-01T05:42:45;9.02;;;5.28;;
76208;SDS011;64990;51.698;-0.292;2023-04-01T05:45:11;12.25;;;5.38;;
76208;SDS011;64990;51.698;-0.292;2023-04-01T05:47:40;10.80;;;4.88;;
76208;SDS011;64990;51.698;-0.292;2023-04-01T05:50:07;12.25;;;5.20;;
76208;SDS011;64990;51.698;-0.292;2023-04-01T05:52:33;11.18;;;4.97;;
76208;SDS011;64990;51.698;-0.292;2023-04-01T05:54:59;7.40;;;4.03;;
76208;SDS011;64990;51.698;-0.292;2023-04-01T05:57:26;10.73;;;4.60;;
76208;SDS011;64990;51.698;-0.292;2023-04-01T05:59:52;7.63;;;4.13;;
76208;SDS011;64990;51.698;-0.292;2023-04-01T06:02:20;8.50;;;4.15;;
76208;SDS011;64990;51.698;-0.292;2023-04-01T06:04:46;12.77;;;4.30;;
76208;SDS011;64990;51.698;-0.292;2023-04-01T06:07:13;9.43;;;4.30;;
76208;SDS011;64990;51.698;-0.292;2023-04-01T06:09:40;8.82;;;5.00;;
76208;SDS011;64990;51.698;-0.292;2023-04-01T06:24:51;8.50;;;4.90;;
76208;SDS011;64990;51.698;-0.292;2023-04-01T06:45:28;12.45;;;4.65;;
76208;SDS011;64990;51.698;-0.292;2023-04-01T06:57:58;18.77;;;6.15;;
76208;SDS011;64990;51.698;-0.292;2023-04-01T07:00:27;13.00;;;6.45;;
76208;SDS011;64990;51.698;-0.292;2023-04-01T07:02:54;12.90;;;6.63;;
76208;SDS011;64990;51.698;-0.292;2023-04-01T07:05:24;11.80;;;7.03;;
76208;SDS011;64990;51.698;-0.292;2023-04-01T07:07:52;15.25;;;5.75;;
76208;SDS011;64990;51.698;-0.292;2023-04-01T07:11:04;18.13;;;6.18;;
76208;SDS011;64990;51.698;-0.292;2023-04-01T07:13:12;13.82;;;7.05;;
76208;SDS011;64990;51.698;-0.292;2023-04-01T07:15:43;17.13;;;6.95;;
76208;SDS011;64990;51.698;-0.292;2023-04-01T07:20:37;13.40;;;6.18;;
76208;SDS011;64990;51.698;-0.292;2023-04-01T07:23:10;18.48;;;6.82;;
76208;SDS011;64990;51.698;-0.292;2023-04-01T07:25:42;17.17;;;6.95;;
76208;SDS011;64990;51.698;-0.292;2023-04-01T07:28:15;10.40;;;6.00;;
76208;SDS011;64990;51.698;-0.292;2023-04-01T07:30:51;12.18;;;5.55;;
76208;SDS011;64990;51.698;-0.292;2023-04-01T07:33:24;11.27;;;5.60;;
76208;SDS011;64990;51.698;-0.292;2023-04-01T07:35:57;20.33;;;6.95;;
76208;SDS011;64990;51.698;-0.292;2023-04-01T07:38:42;14.45;;;6.95;;
76208;SDS011;64990;51.698;-0.292;2023-04-01T07:43:58;15.18;;;6.70;;
76208;SDS011;64990;51.698;-0.292;2023-04-01T07:48:58;31.58;;;10.13;;
76208;SDS011;64990;51.698;-0.292;2023-04-01T08:01:49;18.25;;;7.78;;
76208;SDS011;64990;51.698;-0.292;2023-04-01T08:04:23;13.27;;;7.20;;
76208;SDS011;64990;51.698;-0.292;2023-04-01T08:14:48;19.75;;;6.85;;
76208;SDS011;64990;51.698;-0.292;2023-04-01T08:17:20;11.73;;;6.57;;
76208;SDS011;64990;51.698;-0.292;2023-04-01T08:19:55;12.20;;;5.80;;
76208;SDS011;64990;51.698;-0.292;2023-04-01T08:22:25;7.80;;;5.05;;
76208;SDS011;64990;51.698;-0.292;2023-04-01T08:24:52;10.02;;;4.28;;
76208;SDS011;64990;51.698;-0.292;2023-04-01T08:27:32;50.28;;;9.27;;
76208;SDS011;64990;51.698;-0.292;2023-04-01T08:30:04;14.65;;;8.40;;
76208;SDS011;64990;51.698;-0.292;2023-04-01T08:32:35;18.85;;;7.00;;
76208;SDS011;64990;51.698;-0.292;2023-04-01T08:35:26;16.38;;;9.10;;
76208;SDS011;64990;51.698;-0.292;2023-04-01T08:37:48;17.13;;;8.55;;
76208;SDS011;64990;51.698;-0.292;2023-04-01T08:40:37;16.85;;;8.48;;
76208;SDS011;64990;51.698;-0.292;2023-04-01T08:45:45;17.33;;;7.53;;
76208;SDS011;64990;51.698;-0.292;2023-04-01T08:56:06;14.02;;;8.80;;
76208;SDS011;64990;51.698;-0.292;2023-04-01T09:01:15;13.23;;;7.90;;
76208;SDS011;64990;51.698;-0.292;2023-04-01T09:06:20;22.45;;;9.68;;
76208;SDS011;64990;51.698;-0.292;2023-04-01T09:22:13;11.63;;;6.10;;
76208;SDS011;64990;51.698;-0.292;2023-04-01T09:32:33;12.98;;;6.22;;
76208;SDS011;64990;51.698;-0.292;2023-04-01T09:43:25;12.50;;;5.97;;
76208;SDS011;64990;51.698;-0.292;2023-04-01T09:48:34;17.77;;;6.72;;
76208;SDS011;64990;51.698;-0.292;2023-04-01T09:56:17;9.80;;;6.93;;
76208;SDS011;64990;51.698;-0.292;2023-04-01T10:01:15;16.23;;;6.75;;
76208;SDS011;64990;51.698;-0.292;2023-04-01T10:06:23;10.18;;;6.55;;
76208;SDS011;64990;51.698;-0.292;2023-04-01T10:37:48;22.33;;;5.32;;
76208;SDS011;64990;51.698;-0.292;2023-04-01T10:48:12;9.48;;;2.92;;
76208;SDS011;64990;51.698;-0.292;2023-04-01T10:58:44;9.05;;;3.40;;
76208;SDS011;64990;51.698;-0.292;2023-04-01T11:22:18;10.40;;;5.00;;
76208;SDS011;64990;51.698;-0.292;2023-04-01T11:27:30;9.45;;;3.60;;
76208;SDS011;64990;51.698;-0.292;2023-04-01T11:30:06;9.43;;;3.45;;
76208;SDS011;64990;51.698;-0.292;2023-04-01T11:32:42;5.68;;;2.70;;
76208;SDS011;64990;51.698;-0.292;2023-04-01T11:38:18;11.18;;;3.90;;
76208;SDS011;64990;51.698;-0.292;2023-04-01T11:43:27;22.92;;;4.25;;
76208;SDS011;64990;51.698;-0.292;2023-04-01T11:48:50;6.93;;;2.60;;
76208;SDS011;64990;51.698;-0.292;2023-04-01T11:54:05;4.60;;;2.35;;
76208;SDS011;64990;51.698;-0.292;2023-04-01T12:17:40;14.10;;;3.70;;
76208;SDS011;64990;51.698;-0.292;2023-04-01T12:22:44;12.43;;;4.78;;
76208;SDS011;64990;51.698;-0.292;2023-04-01T12:27:55;10.70;;;6.35;;
76208;SDS011;64990;51.698;-0.292;2023-04-01T12:30:35;20.67;;;6.85;;
76208;SDS011;64990;51.698;-0.292;2023-04-01T12:38:39;8.93;;;4.75;;
76208;SDS011;64990;51.698;-0.292;2023-04-01T13:02:42;8.75;;;4.82;;
76208;SDS011;64990;51.698;-0.292;2023-04-01T13:08:20;7.70;;;4.38;;
76208;SDS011;64990;51.698;-0.292;2023-04-01T13:10:58;11.57;;;3.97;;
76208;SDS011;64990;51.698;-0.292;2023-04-01T13:18:52;5.20;;;2.33;;
76208;SDS011;64990;51.698;-0.292;2023-04-01T13:27:20;5.72;;;3.58;;
76208;SDS011;64990;51.698;-0.292;2023-04-01T13:29:25;7.45;;;3.60;;
76208;SDS011;64990;51.698;-0.292;2023-04-01T13:34:25;9.10;;;5.63;;
76208;SDS011;64990;51.698;-0.292;2023-04-01T13:40:25;7.70;;;4.65;;
76208;SDS011;64990;51.698;-0.292;2023-04-01T13:42:34;7.32;;;4.35;;
76208;SDS011;64990;51.698;-0.292;2023-04-01T13:45:12;10.18;;;3.78;;
76208;SDS011;64990;51.698;-0.292;2023-04-01T13:55:24;7.63;;;4.18;;
76208;SDS011;64990;51.698;-0.292;2023-04-01T14:16:05;26.67;;;6.78;;
76208;SDS011;64990;51.698;-0.292;2023-04-01T14:21:43;8.10;;;4.07;;
76208;SDS011;64990;51.698;-0.292;2023-04-01T14:35:11;5.82;;;4.65;;
76208;SDS011;64990;51.698;-0.292;2023-04-01T14:46:16;14.50;;;5.90;;
76208;SDS011;64990;51.698;-0.292;2023-04-01T14:48:51;10.52;;;4.95;;
76208;SDS011;64990;51.698;-0.292;2023-04-01T14:51:22;23.15;;;6.25;;
76208;SDS011;64990;51.698;-0.292;2023-04-01T14:54:03;14.98;;;5.55;;
76208;SDS011;64990;51.698;-0.292;2023-04-01T14:56:37;12.13;;;4.35;;
76208;SDS011;64990;51.698;-0.292;2023-04-01T14:59:07;11.65;;;5.30;;
76208;SDS011;64990;51.698;-0.292;2023-04-01T15:01:48;16.65;;;6.93;;
76208;SDS011;64990;51.698;-0.292;2023-04-01T15:09:11;8.02;;;3.95;;
76208;SDS011;64990;51.698;-0.292;2023-04-01T15:11:54;10.95;;;4.22;;
76208;SDS011;64990;51.698;-0.292;2023-04-01T15:24:20;12.35;;;3.63;;
76208;SDS011;64990;51.698;-0.292;2023-04-01T15:32:09;8.73;;;3.58;;
76208;SDS011;64990;51.698;-0.292;2023-04-01T15:37:17;12.43;;;3.22;;
76208;SDS011;64990;51.698;-0.292;2023-04-01T15:49:53;11.73;;;3.22;;
76208;SDS011;64990;51.698;-0.292;2023-04-01T15:57:35;5.97;;;3.22;;
76208;SDS011;64990;51.698;-0.292;2023-04-01T16:02:46;9.55;;;3.58;;
76208;SDS011;64990;51.698;-0.292;2023-04-01T16:14:05;9.63;;;3.28;;
76208;SDS011;64990;51.698;-0.292;2023-04-01T16:20:57;5.13;;;2.33;;
76208;SDS011;64990;51.698;-0.292;2023-04-01T16:26:32;18.80;;;3.38;;
76208;SDS011;64990;51.698;-0.292;2023-04-01T16:29:05;3.22;;;2.00;;
76208;SDS011;64990;51.698;-0.292;2023-04-01T16:34:30;4.25;;;2.47;;
76208;SDS011;64990;51.698;-0.292;2023-04-01T16:37:00;6.55;;;3.60;;
76208;SDS011;64990;51.698;-0.292;2023-04-01T16:39:43;4.72;;;2.40;;
76208;SDS011;64990;51.698;-0.292;2023-04-01T16:44:48;4.80;;;3.05;;
76208;SDS011;64990;51.698;-0.292;2023-04-01T16:47:49;6.60;;;2.90;;
76208;SDS011;64990;51.698;-0.292;2023-04-01T16:55:41;9.68;;;2.90;;
76208;SDS011;64990;51.698;-0.292;2023-04-01T16:58:09;5.10;;;2.40;;
76208;SDS011;64990;51.698;-0.292;2023-04-01T17:00:48;10.43;;;2.65;;
76208;SDS011;64990;51.698;-0.292;2023-04-01T17:03:29;6.38;;;2.25;;
76208;SDS011;64990;51.698;-0.292;2023-04-01T17:06:03;5.15;;;2.97;;
76208;SDS011;64990;51.698;-0.292;2023-04-01T17:11:20;4.05;;;2.13;;
76208;SDS011;64990;51.698;-0.292;2023-04-01T17:16:33;4.85;;;1.95;;
76208;SDS011;64990;51.698;-0.292;2023-04-01T17:19:28;5.35;;;1.90;;
76208;SDS011;64990;51.698;-0.292;2023-04-01T17:21:57;4.03;;;1.88;;
76208;SDS011;64990;51.698;-0.292;2023-04-01T17:27:10;4.13;;;2.35;;
76208;SDS011;64990;51.698;-0.292;2023-04-01T17:29:55;6.35;;;2.47;;
76208;SDS011;64990;51.698;-0.292;2023-04-01T17:37:45;10.38;;;1.90;;
76208;SDS011;64990;51.698;-0.292;2023-04-01T17:45:54;11.50;;;3.33;;
76208;SDS011;64990;51.698;-0.292;2023-04-01T17:55:51;9.02;;;2.60;;
76208;SDS011;64990;51.698;-0.292;2023-04-01T17:58:21;5.55;;;2.78;;
76208;SDS011;64990;51.698;-0.292;2023-04-01T18:21:53;8.13;;;3.58;;
76208;SDS011;64990;51.698;-0.292;2023-04-01T18:27:03;5.63;;;2.53;;
76208;SDS011;64990;51.698;-0.292;2023-04-01T18:37:16;7.68;;;3.70;;
76208;SDS011;64990;51.698;-0.292;2023-04-01T18:39:46;23.50;;;5.03;;
76208;SDS011;64990;51.698;-0.292;2023-04-01T18:42:16;11.68;;;4.18;;
76208;SDS011;64990;51.698;-0.292;2023-04-01T18:44:46;6.32;;;3.30;;
76208;SDS011;64990;51.698;-0.292;2023-04-01T18:47:24;7.13;;;3.40;;
76208;SDS011;64990;51.698;-0.292;2023-04-01T18:52:42;15.80;;;5.22;;
76208;SDS011;64990;51.698;-0.292;2023-04-01T18:58:17;8.77;;;4.90;;
76208;SDS011;64990;51.698;-0.292;2023-04-01T19:00:47;14.73;;;5.30;;
76208;SDS011;64990;51.698;-0.292;2023-04-01T19:03:23;7.20;;;4.45;;
76208;SDS011;64990;51.698;-0.292;2023-04-01T19:05:52;12.77;;;6.00;;
76208;SDS011;64990;51.698;-0.292;2023-04-01T19:10:53;8.13;;;4.88;;
76208;SDS011;64990;51.698;-0.292;2023-04-01T19:26:37;2.95;;;2.40;;
76208;SDS011;64990;51.698;-0.292;2023-04-01T19:32:03;6.50;;;2.70;;
76208;SDS011;64990;51.698;-0.292;2023-04-01T19:37:51;4.10;;;2.40;;
76208;SDS011;64990;51.698;-0.292;2023-04-01T19:40:03;4.15;;;2.20;;
76208;SDS011;64990;51.698;-0.292;2023-04-01T19:45:16;6.55;;;2.55;;
76208;SDS011;64990;51.698;-0.292;2023-04-01T19:50:35;3.03;;;2.40;;
76208;SDS011;64990;51.698;-0.292;2023-04-01T19:53:15;3.97;;;2.80;;
76208;SDS011;64990;51.698;-0.292;2023-04-01T19:55:52;4.60;;;3.33;;
76208;SDS011;64990;51.698;-0.292;2023-04-01T19:58:36;8.95;;;5.05;;
76208;SDS011;64990;51.698;-0.292;2023-04-01T20:01:05;8.18;;;3.85;;
76208;SDS011;64990;51.698;-0.292;2023-04-01T20:08:54;18.33;;;4.82;;
76208;SDS011;64990;51.698;-0.292;2023-04-01T20:13:54;4.05;;;2.90;;
76208;SDS011;64990;51.698;-0.292;2023-04-01T20:16:24;6.60;;;4.00;;
76208;SDS011;64990;51.698;-0.292;2023-04-01T20:19:06;6.65;;;3.08;;
76208;SDS011;64990;51.698;-0.292;2023-04-01T20:21:51;5.05;;;2.53;;
76208;SDS011;64990;51.698;-0.292;2023-04-01T20:24:30;11.48;;;2.88;;
76208;SDS011;64990;51.698;-0.292;2023-04-01T20:26:59;4.90;;;2.92;;
76208;SDS011;64990;51.698;-0.292;2023-04-01T20:29:34;20.25;;;4.13;;
76208;SDS011;64990;51.698;-0.292;2023-04-01T20:42:21;11.45;;;3.53;;
76208;SDS011;64990;51.698;-0.292;2023-04-01T21:00:20;3.47;;;3.08;;
76208;SDS011;64990;51.698;-0.292;2023-04-01T21:18:24;9.05;;;4.00;;
76208;SDS011;64990;51.698;-0.292;2023-04-01T21:23:52;12.05;;;4.07;;
76208;SDS011;64990;51.698;-0.292;2023-04-01T21:26:45;5.63;;;3.03;;
76208;SDS011;64990;51.698;-0.292;2023-04-01T21:29:51;10.30;;;3.85;;
76208;SDS011;64990;51.698;-0.292;2023-04-01T21:34:35;13.70;;;4.45;;
76208;SDS011;64990;51.698;-0.292;2023-04-01T21:37:19;11.77;;;4.65;;
76208;SDS011;64990;51.698;-0.292;2023-04-01T21:42:20;11.80;;;5.20;;
76208;SDS011;64990;51.698;-0.292;2023-04-01T22:03:13;12.38;;;3.88;;
76208;SDS011;64990;51.698;-0.292;2023-04-01T22:05:45;7.22;;;3.55;;
76208;SDS011;64990;51.698;-0.292;2023-04-01T22:13:50;8.43;;;4.93;;
76208;SDS011;64990;51.698;-0.292;2023-04-01T22:32:06;4.78;;;2.85;;
76208;SDS011;64990;51.698;-0.292;2023-04-01T22:34:42;12.95;;;3.45;;
76208;SDS011;64990;51.698;-0.292;2023-04-01T22:47:47;15.07;;;3.53;;
76208;SDS011;64990;51.698;-0.292;2023-04-01T22:50:20;3.88;;;2.75;;
76208;SDS011;64990;51.698;-0.292;2023-04-01T22:52:48;4.60;;;2.72;;
76208;SDS011;64990;51.698;-0.292;2023-04-01T22:57:48;9.90;;;3.28;;
76208;SDS011;64990;51.698;-0.292;2023-04-01T23:00:18;4.60;;;3.15;;
76208;SDS011;64990;51.698;-0.292;2023-04-01T23:05:30;6.85;;;3.42;;
76208;SDS011;64990;51.698;-0.292;2023-04-01T23:10:47;14.70;;;3.80;;
76208;SDS011;64990;51.698;-0.292;2023-04-01T23:13:22;4.88;;;3.03;;
76208;SDS011;64990;51.698;-0.292;2023-04-01T23:15:50;6.55;;;2.35;;
76208;SDS011;64990;51.698;-0.292;2023-04-01T23:19:03;3.60;;;2.40;;
76208;SDS011;64990;51.698;-0.292;2023-04-01T23:21:09;6.03;;;3.10;;
76208;SDS011;64990;51.698;-0.292;2023-04-01T23:26:10;4.18;;;2.60;;
76208;SDS011;64990;51.698;-0.292;2023-04-01T23:28:53;5.47;;;3.53;;
76208;SDS011;64990;51.698;-0.292;2023-04-01T23:33:56;5.00;;;3.03;;
76208;SDS011;64990;51.698;-0.292;2023-04-01T23:36:23;6.35;;;3.65;;
76208;SDS011;64990;51.698;-0.292;2023-04-01T23:38:49;3.30;;;2.70;;
76208;SDS011;64990;51.698;-0.292;2023-04-01T23:41:20;4.78;;;3.08;;
76208;SDS011;64990;51.698;-0.292;2023-04-01T23:43:54;3.83;;;1.83;;
76208;SDS011;64990;51.698;-0.292;2023-04-01T23:46:20;9.55;;;2.80;;
76208;SDS011;64990;51.698;-0.292;2023-04-01T23:48:47;4.25;;;2.13;;
76208;SDS011;64990;51.698;-0.292;2023-04-01T23:51:24;3.13;;;1.90;;
76208;SDS011;64990;51.698;-0.292;2023-04-01T23:56:53;2.05;;;1.80;;
76208;SDS011;64990;51.698;-0.292;2023-04-01T23:59:24;5.63;;;2.40;;
